Terminal Aerodrome Forecast
Issued by NWS Upton, NY

Home | Current Version | Previous Version | Text Only | Print | Product List | Glossary On
Versions: 1 2 3 4 5 6 7 8 9 10 11 12 13 14 15 16 17 18 19 20 21 22 23 24 25 26
000
FTUS41 KOKX 231400 AAA
TAFISP
TAF AMD
KISP 231430Z 2315/2412 22007KT P6SM SCT250
     FM231700 19012KT P6SM SCT050
     FM232300 22007KT P6SM SCT050 BKN250 PROB30 2403/2407 5SM TSRA
      BKN050CB
     FM240700 VRB05KT P6SM BKN120
     FM240900 34006KT P6SM BKN200=

USA.gov is the U.S. government's official web portal to all federal, state and local government web resources and services.